createdAt,value
2022-12-29T04:03:19.450Z,6.02
2022-12-29T04:05:49.009Z,6.00
2022-12-29T04:08:18.780Z,6.00
2022-12-29T04:10:50.085Z,5.94
2022-12-29T04:13:20.918Z,5.89
2022-12-29T04:15:50.410Z,5.84
2022-12-29T04:18:22.681Z,5.80
2022-12-29T04:21:01.560Z,5.79
2022-12-29T04:23:35.392Z,5.79
2022-12-29T04:26:08.498Z,5.80
2022-12-29T04:28:41.999Z,5.74
2022-12-29T04:31:34.569Z,5.72
2022-12-29T04:34:05.863Z,5.74
2022-12-29T04:36:35.880Z,5.72
2022-12-29T04:39:06.127Z,5.71
2022-12-29T04:41:36.220Z,5.68
2022-12-29T04:44:06.411Z,5.66
2022-12-29T04:46:36.875Z,5.67
2022-12-29T04:49:13.420Z,5.62
2022-12-29T04:52:03.121Z,5.73
2022-12-29T04:54:32.842Z,5.81
2022-12-29T04:57:10.802Z,5.83
2022-12-29T04:59:41.779Z,5.79
2022-12-29T05:02:11.815Z,5.78
2022-12-29T05:04:42.843Z,5.75
2022-12-29T05:07:12.294Z,5.71
2022-12-29T05:09:41.683Z,5.70
2022-12-29T05:12:11.144Z,5.69
2022-12-29T05:14:49.081Z,5.67
2022-12-29T05:17:18.652Z,5.61
2022-12-29T05:19:49.825Z,5.65
2022-12-29T05:22:19.528Z,5.62
2022-12-29T05:24:49.663Z,5.55
2022-12-29T05:27:19.549Z,5.54
2022-12-29T05:30:03.265Z,5.54
2022-12-29T05:32:33.382Z,5.60
2022-12-29T05:35:04.524Z,5.56
2022-12-29T05:37:36.109Z,5.56
2022-12-29T05:40:08.557Z,5.57
2022-12-29T05:42:37.961Z,5.57
2022-12-29T05:45:34.253Z,5.60
2022-12-29T05:48:26.752Z,5.71
2022-12-29T05:51:26.894Z,5.68
2022-12-29T05:53:58.797Z,5.59
2022-12-29T05:56:29.855Z,5.61
2022-12-29T05:59:02.296Z,5.66
2022-12-29T06:01:31.901Z,5.66
2022-12-29T06:04:02.008Z,5.75
2022-12-29T06:06:33.463Z,5.77
2022-12-29T06:09:03.205Z,5.89
2022-12-29T06:11:32.642Z,5.90
2022-12-29T06:14:02.944Z,5.93
2022-12-29T06:16:32.746Z,5.91
2022-12-29T06:19:04.624Z,6.00
2022-12-29T06:21:38.265Z,6.07
2022-12-29T06:24:09.738Z,6.13
2022-12-29T06:26:41.101Z,6.14
2022-12-29T06:29:18.019Z,6.17
2022-12-29T06:31:49.797Z,6.13
2022-12-29T06:34:19.663Z,6.30
2022-12-29T06:36:50.411Z,6.40
2022-12-29T06:39:19.897Z,6.36
2022-12-29T06:42:02.097Z,6.35
2022-12-29T06:44:46.611Z,6.38
2022-12-29T06:47:16.547Z,6.38
2022-12-29T06:49:46.202Z,6.30
2022-12-29T06:52:16.899Z,6.27
2022-12-29T06:54:46.692Z,6.18
2022-12-29T06:57:18.146Z,6.09
2022-12-29T06:59:47.748Z,5.99
2022-12-29T07:02:19.243Z,5.89
2022-12-29T07:04:48.742Z,5.77
2022-12-29T07:07:19.552Z,5.73
2022-12-29T07:09:49.022Z,5.77
2022-12-29T07:12:18.458Z,5.98
2022-12-29T07:14:47.819Z,6.19
2022-12-29T07:17:17.226Z,6.28
2022-12-29T07:19:46.653Z,6.35
2022-12-29T07:22:16.123Z,6.36
2022-12-29T07:24:46.816Z,6.35
2022-12-29T07:27:16.237Z,6.28
2022-12-29T07:29:45.885Z,6.25
2022-12-29T07:32:15.279Z,6.18
2022-12-29T07:34:46.269Z,6.29
2022-12-29T07:37:17.334Z,6.23
2022-12-29T07:39:48.338Z,6.25
2022-12-29T07:42:17.755Z,6.25
2022-12-29T07:44:53.285Z,6.35
2022-12-29T07:47:29.665Z,6.36
2022-12-29T07:49:59.081Z,6.37
2022-12-29T07:52:28.490Z,6.41
2022-12-29T07:54:59.253Z,6.53
2022-12-29T07:57:32.021Z,6.45
2022-12-29T08:00:01.873Z,6.56
2022-12-29T08:02:41.383Z,6.52
2022-12-29T08:05:11.038Z,6.66
2022-12-29T08:07:40.477Z,6.82
2022-12-29T08:10:12.069Z,7.01
2022-12-29T08:12:43.382Z,7.07
2022-12-29T08:15:14.042Z,7.21
2022-12-29T08:17:43.692Z,7.26
2022-12-29T08:20:14.235Z,7.33
2022-12-29T08:22:43.807Z,7.63
2022-12-29T08:25:15.045Z,7.94
2022-12-29T08:27:46.411Z,8.22
2022-12-29T08:30:16.295Z,8.42
2022-12-29T08:32:45.687Z,8.48
2022-12-29T08:35:15.197Z,8.48
2022-12-29T08:37:44.626Z,8.39
2022-12-29T08:40:15.859Z,8.36
2022-12-29T08:42:46.074Z,8.37
2022-12-29T08:45:15.626Z,8.28
2022-12-29T08:47:45.060Z,8.25
2022-12-29T08:50:14.512Z,8.40
2022-12-29T08:52:43.855Z,8.39
2022-12-29T08:55:14.625Z,8.36
2022-12-29T08:57:44.215Z,8.44
2022-12-29T09:00:19.698Z,8.53
2022-12-29T09:02:49.371Z,8.68
2022-12-29T09:05:19.152Z,8.79
2022-12-29T09:07:49.073Z,9.00
2022-12-29T09:10:20.154Z,9.20
2022-12-29T09:12:49.641Z,9.22
2022-12-29T09:15:19.412Z,9.36
2022-12-29T09:17:48.915Z,9.48
2022-12-29T09:20:21.292Z,9.61
2022-12-29T09:22:50.995Z,9.67
2022-12-29T09:25:25.097Z,9.63
2022-12-29T09:27:55.523Z,9.64
2022-12-29T09:30:25.712Z,9.68
2022-12-29T09:32:55.491Z,9.64
2022-12-29T09:35:25.119Z,9.60
2022-12-29T09:37:54.592Z,9.60
2022-12-29T09:40:36.100Z,9.55
2022-12-29T09:43:52.400Z,9.59
2022-12-29T09:46:28.526Z,9.56
2022-12-29T09:49:17.893Z,9.52
2022-12-29T09:51:53.160Z,9.47
2022-12-29T09:54:48.181Z,9.44
2022-12-29T09:57:27.499Z,9.41
2022-12-29T10:00:05.427Z,9.36
2022-12-29T10:02:47.003Z,9.39
2022-12-29T10:05:43.788Z,9.45
2022-12-29T10:08:32.286Z,9.41
2022-12-29T10:11:20.225Z,9.35
2022-12-29T10:14:19.736Z,9.34
2022-12-29T10:17:02.105Z,9.41
2022-12-29T10:19:51.229Z,9.39
2022-12-29T10:22:43.372Z,9.44
2022-12-29T10:25:20.990Z,9.44
2022-12-29T10:27:52.043Z,9.53
2022-12-29T10:30:22.816Z,9.64
2022-12-29T10:32:57.460Z,9.77
2022-12-29T10:35:35.050Z,9.91
2022-12-29T10:38:17.180Z,10.00
2022-12-29T10:40:54.093Z,10.11
2022-12-29T10:43:30.414Z,10.23
2022-12-29T10:46:10.808Z,10.38
2022-12-29T10:48:41.183Z,10.50
2022-12-29T10:51:11.354Z,10.54
2022-12-29T10:53:48.304Z,10.62
2022-12-29T10:56:31.404Z,10.83
2022-12-29T10:59:09.766Z,10.87
2022-12-29T11:01:54.952Z,10.89
2022-12-29T11:04:47.962Z,10.92
2022-12-29T11:07:26.907Z,10.90
2022-12-29T11:09:57.031Z,10.91
2022-12-29T11:12:29.891Z,10.91
2022-12-29T11:15:15.578Z,10.97
2022-12-29T11:17:52.665Z,10.98
2022-12-29T11:20:35.845Z,10.96
2022-12-29T11:23:24.939Z,11.04
2022-12-29T11:26:22.106Z,11.06
2022-12-29T11:29:40.370Z,11.14
2022-12-29T11:32:22.754Z,11.15
2022-12-29T11:34:59.665Z,11.16
2022-12-29T11:37:36.285Z,11.19
2022-12-29T11:40:12.275Z,11.27
2022-12-29T11:42:50.662Z,11.32
2022-12-29T11:45:24.610Z,11.40
2022-12-29T11:47:58.095Z,11.48
2022-12-29T11:50:34.197Z,11.55
2022-12-29T11:53:08.296Z,11.56
2022-12-29T11:55:37.675Z,11.61
2022-12-29T11:58:08.364Z,11.61
2022-12-29T12:00:41.689Z,11.60
2022-12-29T12:03:20.050Z,11.70
2022-12-29T12:05:56.725Z,11.83
2022-12-29T12:08:38.397Z,11.95
2022-12-29T12:11:15.060Z,12.09
2022-12-29T12:13:59.134Z,12.02
2022-12-29T12:16:42.113Z,12.11
2022-12-29T12:19:34.882Z,12.13
2022-12-29T12:22:18.213Z,12.18
2022-12-29T12:24:56.623Z,12.24
2022-12-29T12:27:31.315Z,12.23
2022-12-29T12:30:06.160Z,12.35
2022-12-29T12:32:50.665Z,12.31
2022-12-29T12:35:36.661Z,12.26
2022-12-29T12:38:25.111Z,12.24
2022-12-29T12:41:16.728Z,12.39
2022-12-29T12:43:54.952Z,12.34
2022-12-29T12:46:55.160Z,12.39
2022-12-29T12:50:04.758Z,12.52
2022-12-29T12:52:55.560Z,12.48
2022-12-29T12:56:14.787Z,12.56
2022-12-29T12:58:54.558Z,12.50
2022-12-29T13:01:41.294Z,12.45
2022-12-29T13:04:50.113Z,12.42
2022-12-29T13:07:35.567Z,12.38
2022-12-29T13:10:48.461Z,12.32
2022-12-29T13:14:03.042Z,12.31
2022-12-29T13:16:44.379Z,12.30
2022-12-29T13:19:25.372Z,12.28
2022-12-29T13:22:09.103Z,12.19
2022-12-29T13:25:00.644Z,12.13
2022-12-29T13:27:45.185Z,12.18
2022-12-29T13:30:20.219Z,12.07
2022-12-29T13:33:06.122Z,12.09
2022-12-29T13:35:57.481Z,12.02
2022-12-29T13:38:36.795Z,12.01
2022-12-29T13:41:11.144Z,12.01
2022-12-29T13:43:47.687Z,12.00
2022-12-29T13:46:24.586Z,11.94
2022-12-29T13:49:01.119Z,11.89
2022-12-29T13:51:31.715Z,11.88
2022-12-29T13:54:19.911Z,11.83
2022-12-29T13:56:58.529Z,11.77
2022-12-29T13:59:42.595Z,11.68
2022-12-29T14:02:29.451Z,11.66
2022-12-29T14:05:03.173Z,11.61
2022-12-29T14:10:36.257Z,11.56
2022-12-29T14:13:13.229Z,11.55
2022-12-29T14:15:47.412Z,11.54
2022-12-29T14:18:22.269Z,11.47
2022-12-29T14:20:57.754Z,11.44
2022-12-29T14:23:40.772Z,11.34
2022-12-29T14:26:18.631Z,11.33
2022-12-29T14:28:50.303Z,11.27
2022-12-29T14:31:42.948Z,11.31
2022-12-29T14:34:33.207Z,11.21
2022-12-29T14:37:04.403Z,11.24
2022-12-29T14:39:40.199Z,11.15
2022-12-29T14:42:16.232Z,11.01
2022-12-29T14:44:51.784Z,11.07
2022-12-29T14:47:30.278Z,11.01
2022-12-29T14:50:07.355Z,10.96
2022-12-29T14:52:49.109Z,10.94
2022-12-29T14:55:42.350Z,10.85
2022-12-29T14:58:21.572Z,10.77
2022-12-29T15:00:51.576Z,10.65
2022-12-29T15:03:27.153Z,10.56
2022-12-29T15:06:04.782Z,10.55
2022-12-29T15:08:44.375Z,10.51
2022-12-29T15:11:20.606Z,10.43
2022-12-29T15:13:50.836Z,10.37
2022-12-29T15:16:28.201Z,10.33
2022-12-29T15:19:00.518Z,10.45
2022-12-29T15:21:34.102Z,10.43
2022-12-29T15:24:04.523Z,10.38
2022-12-29T15:26:41.909Z,10.50
2022-12-29T15:29:35.108Z,10.42
2022-12-29T15:32:22.749Z,10.45
2022-12-29T15:34:57.039Z,10.39
2022-12-29T15:37:29.569Z,10.47
2022-12-29T15:39:59.827Z,10.45
2022-12-29T15:42:57.586Z,10.51
2022-12-29T15:45:36.840Z,10.47
2022-12-29T15:48:15.445Z,10.48
2022-12-29T15:50:46.851Z,10.48
2022-12-29T15:53:29.110Z,10.44
2022-12-29T15:56:04.260Z,10.43
2022-12-29T15:58:45.385Z,10.32
2022-12-29T16:01:26.287Z,10.27
2022-12-29T16:03:56.641Z,10.32
2022-12-29T16:06:34.767Z,10.26
2022-12-29T16:09:07.758Z,10.28
2022-12-29T16:11:41.153Z,10.30
2022-12-29T16:14:16.856Z,10.39
2022-12-29T16:16:48.582Z,10.33
2022-12-29T16:19:28.239Z,10.40
2022-12-29T16:22:01.262Z,10.34
2022-12-29T16:24:34.755Z,10.32
2022-12-29T16:27:12.076Z,10.38
2022-12-29T16:29:42.062Z,10.39
2022-12-29T16:32:29.032Z,10.39
2022-12-29T16:35:18.882Z,10.38
2022-12-29T16:37:50.822Z,10.28
2022-12-29T16:40:31.420Z,10.30
2022-12-29T16:43:03.778Z,10.26
2022-12-29T16:46:24.394Z,10.28
2022-12-29T16:48:56.273Z,10.26
2022-12-29T16:51:34.310Z,10.25
2022-12-29T16:54:05.975Z,10.20
2022-12-29T16:56:38.316Z,10.20
2022-12-29T16:59:30.028Z,10.22
2022-12-29T17:02:03.721Z,10.12
2022-12-29T17:04:34.328Z,10.12
2022-12-29T17:07:03.718Z,10.11
2022-12-29T17:09:33.098Z,10.14
2022-12-29T17:12:11.098Z,10.16
2022-12-29T17:14:45.488Z,10.17
2022-12-29T17:17:26.673Z,10.18
2022-12-29T17:20:03.637Z,10.17
2022-12-29T17:22:34.121Z,10.16
2022-12-29T17:25:03.996Z,10.15
2022-12-29T17:27:42.715Z,10.15
2022-12-29T17:30:16.587Z,10.14
2022-12-29T17:32:53.735Z,10.15
2022-12-29T17:35:24.341Z,10.06
2022-12-29T17:37:54.004Z,10.15
2022-12-29T17:40:26.771Z,10.26
2022-12-29T17:42:59.606Z,10.35
2022-12-29T17:45:32.808Z,10.35
2022-12-29T17:48:03.435Z,10.40
2022-12-29T17:50:33.402Z,10.40
2022-12-29T17:53:06.856Z,10.41
2022-12-29T17:55:38.277Z,10.39
2022-12-29T17:58:20.164Z,10.42
2022-12-29T18:00:52.738Z,10.42
2022-12-29T18:03:29.027Z,10.40
2022-12-29T18:05:59.585Z,10.42
2022-12-29T18:08:29.640Z,10.31
2022-12-29T18:11:00.122Z,10.37
2022-12-29T18:13:44.035Z,10.42
2022-12-29T18:16:15.666Z,10.29
2022-12-29T18:18:46.899Z,10.34
2022-12-29T18:21:20.800Z,10.35
2022-12-29T18:23:51.484Z,10.28
2022-12-29T18:26:27.916Z,10.30
2022-12-29T18:28:59.447Z,10.29
2022-12-29T18:31:32.905Z,10.21
2022-12-29T18:34:15.833Z,10.28
2022-12-29T18:36:45.420Z,10.28
2022-12-29T18:39:14.795Z,10.25
2022-12-29T18:41:44.119Z,10.27
2022-12-29T18:44:14.663Z,10.31
2022-12-29T18:46:44.127Z,10.34
2022-12-29T18:49:16.746Z,10.26
2022-12-29T18:51:46.145Z,10.28
2022-12-29T18:54:31.095Z,10.27
2022-12-29T18:57:00.703Z,10.25
2022-12-29T18:59:30.135Z,10.09
2022-12-29T19:01:59.504Z,10.10
2022-12-29T19:04:30.282Z,10.02
2022-12-29T19:06:59.711Z,10.08
2022-12-29T19:09:29.121Z,10.10
2022-12-29T19:11:58.570Z,10.12
2022-12-29T19:14:28.005Z,10.14
2022-12-29T19:16:57.402Z,10.13
2022-12-29T19:19:26.809Z,10.17
2022-12-29T19:21:58.134Z,10.11
2022-12-29T19:24:27.512Z,10.07
2022-12-29T19:26:56.968Z,9.98
2022-12-29T19:29:26.429Z,9.99
2022-12-29T19:31:55.934Z,10.05
2022-12-29T19:34:25.358Z,10.15
2022-12-29T19:36:54.843Z,10.16
2022-12-29T19:39:25.638Z,10.16
2022-12-29T19:41:59.134Z,10.23
2022-12-29T19:44:31.475Z,10.17
2022-12-29T19:47:01.070Z,10.11
2022-12-29T19:49:31.977Z,10.19
2022-12-29T19:52:01.417Z,10.12
2022-12-29T19:54:32.271Z,10.12
2022-12-29T19:57:01.661Z,10.10
2022-12-29T19:59:31.470Z,10.04
2022-12-29T20:02:01.031Z,10.00
2022-12-29T20:04:30.674Z,9.99
2022-12-29T20:07:00.130Z,10.01
2022-12-29T20:09:30.899Z,10.04
2022-12-29T20:12:00.326Z,9.94
2022-12-29T20:14:29.746Z,9.94
2022-12-29T20:17:10.754Z,9.94
2022-12-29T20:19:42.406Z,9.79
2022-12-29T20:22:13.037Z,9.78
2022-12-29T20:25:53.770Z,9.78
2022-12-29T20:27:33.213Z,9.74
2022-12-29T20:30:02.849Z,9.78
2022-12-29T20:32:35.630Z,9.69
2022-12-29T20:35:05.800Z,9.67
2022-12-29T20:37:35.265Z,9.72
2022-12-29T20:40:07.352Z,9.63
2022-12-29T20:42:36.759Z,9.65
2022-12-29T20:45:07.282Z,9.59
2022-12-29T20:47:36.827Z,9.54
2022-12-29T20:50:07.617Z,9.60
2022-12-29T20:52:37.084Z,9.45
2022-12-29T20:55:08.697Z,9.36
2022-12-29T20:57:57.560Z,9.36
2022-12-29T21:00:30.263Z,9.25
2022-12-29T21:03:01.000Z,9.22
2022-12-29T21:05:31.370Z,9.15
2022-12-29T21:08:00.808Z,9.15
2022-12-29T21:10:31.795Z,9.10
2022-12-29T21:13:01.638Z,9.04
2022-12-29T21:15:32.773Z,9.04
2022-12-29T21:18:02.132Z,8.96
2022-12-29T21:20:32.461Z,8.90
2022-12-29T21:23:04.112Z,8.85
2022-12-29T21:25:37.931Z,8.77
2022-12-29T21:28:12.097Z,8.82
2022-12-29T21:30:42.821Z,8.72
2022-12-29T21:33:12.528Z,8.72
2022-12-29T21:35:41.959Z,8.76
2022-12-29T21:38:11.617Z,8.69
2022-12-29T21:40:42.714Z,8.65
2022-12-29T21:43:13.402Z,8.64
2022-12-29T21:45:41.875Z,8.59
2022-12-29T21:48:24.914Z,8.57
2022-12-29T21:51:16.036Z,8.51
2022-12-29T21:53:46.885Z,8.49
2022-12-29T21:56:21.317Z,8.58
2022-12-29T21:59:10.102Z,8.57
2022-12-29T22:01:57.559Z,8.65
2022-12-29T22:04:45.054Z,8.65
2022-12-29T22:07:32.654Z,8.60
2022-12-29T22:10:19.457Z,8.56
2022-12-29T22:12:59.021Z,8.49
2022-12-29T22:15:30.818Z,8.55
2022-12-29T22:18:02.402Z,8.49
2022-12-29T22:20:35.934Z,8.55
2022-12-29T22:23:05.639Z,8.60
2022-12-29T22:25:35.329Z,8.65
2022-12-29T22:28:06.645Z,8.62
2022-12-29T22:30:36.095Z,8.64
2022-12-29T22:33:05.849Z,8.62
2022-12-29T22:35:35.571Z,8.64
2022-12-29T22:38:05.038Z,8.48
2022-12-29T22:40:34.531Z,8.49
2022-12-29T22:43:09.537Z,8.46
2022-12-29T22:45:42.910Z,8.46
2022-12-29T22:48:12.339Z,8.46
2022-12-29T22:50:41.764Z,8.47
2022-12-29T22:53:11.243Z,8.47
2022-12-29T22:55:40.678Z,8.46
2022-12-29T22:58:11.486Z,8.40
2022-12-29T23:00:41.245Z,8.46
2022-12-29T23:03:11.643Z,8.42
2022-12-29T23:05:46.263Z,8.55
2022-12-29T23:08:15.792Z,8.47
2022-12-29T23:10:45.372Z,8.50
2022-12-29T23:13:16.702Z,8.51
2022-12-29T23:15:48.492Z,8.47
2022-12-29T23:18:20.500Z,8.43
2022-12-29T23:20:51.659Z,8.32
2022-12-29T23:23:35.722Z,8.27
2022-12-29T23:26:11.292Z,8.20
2022-12-29T23:28:42.728Z,8.10
2022-12-29T23:31:12.420Z,7.96
2022-12-29T23:33:42.174Z,7.97
2022-12-29T23:36:12.598Z,7.93
2022-12-29T23:38:42.354Z,7.83
2022-12-29T23:41:12.755Z,7.94
2022-12-29T23:43:44.079Z,7.95
2022-12-29T23:46:17.440Z,7.98
2022-12-29T23:48:47.735Z,7.95
2022-12-29T23:51:17.890Z,7.93
2022-12-29T23:53:48.276Z,7.90
2022-12-29T23:56:21.594Z,7.88
2022-12-29T23:58:52.939Z,7.90
